sensor_id;sensor_type;location;lat;lon;timestamp;P1;durP1;ratioP1;P2;durP2;ratioP2
61036;SDS011;57313;47.040;15.498;2022-08-19T00:01:47;11.98;;;2.42;;
61036;SDS011;57313;47.040;15.498;2022-08-19T00:04:20;11.93;;;2.33;;
61036;SDS011;57313;47.040;15.498;2022-08-19T00:06:49;8.15;;;2.30;;
61036;SDS011;57313;47.040;15.498;2022-08-19T00:09:17;10.75;;;2.35;;
61036;SDS011;57313;47.040;15.498;2022-08-19T00:11:46;13.10;;;2.33;;
61036;SDS011;57313;47.040;15.498;2022-08-19T00:14:15;14.40;;;2.40;;
61036;SDS011;57313;47.040;15.498;2022-08-19T00:16:46;11.57;;;2.35;;
61036;SDS011;57313;47.040;15.498;2022-08-19T00:19:14;9.68;;;2.40;;
61036;SDS011;57313;47.040;15.498;2022-08-19T00:21:42;12.07;;;2.30;;
61036;SDS011;57313;47.040;15.498;2022-08-19T00:24:10;11.85;;;3.00;;
61036;SDS011;57313;47.040;15.498;2022-08-19T00:26:40;8.57;;;2.33;;
61036;SDS011;57313;47.040;15.498;2022-08-19T00:29:09;15.00;;;2.45;;
61036;SDS011;57313;47.040;15.498;2022-08-19T00:31:40;15.70;;;3.03;;
61036;SDS011;57313;47.040;15.498;2022-08-19T00:34:08;13.95;;;2.72;;
61036;SDS011;57313;47.040;15.498;2022-08-19T00:36:35;15.65;;;2.70;;
61036;SDS011;57313;47.040;15.498;2022-08-19T00:39:03;9.65;;;2.30;;
61036;SDS011;57313;47.040;15.498;2022-08-19T00:41:30;13.55;;;2.53;;
61036;SDS011;57313;47.040;15.498;2022-08-19T00:43:59;11.43;;;2.60;;
61036;SDS011;57313;47.040;15.498;2022-08-19T00:46:29;12.23;;;2.50;;
61036;SDS011;57313;47.040;15.498;2022-08-19T00:48:58;8.90;;;2.40;;
61036;SDS011;57313;47.040;15.498;2022-08-19T00:51:28;8.85;;;2.53;;
61036;SDS011;57313;47.040;15.498;2022-08-19T00:53:57;10.77;;;2.42;;
61036;SDS011;57313;47.040;15.498;2022-08-19T00:56:26;12.75;;;2.70;;
61036;SDS011;57313;47.040;15.498;2022-08-19T00:58:55;9.82;;;2.75;;
61036;SDS011;57313;47.040;15.498;2022-08-19T01:01:25;11.63;;;3.05;;
61036;SDS011;57313;47.040;15.498;2022-08-19T01:03:52;13.00;;;2.55;;
61036;SDS011;57313;47.040;15.498;2022-08-19T01:06:25;12.50;;;2.92;;
61036;SDS011;57313;47.040;15.498;2022-08-19T01:08:53;13.63;;;2.90;;
61036;SDS011;57313;47.040;15.498;2022-08-19T01:11:21;10.82;;;2.50;;
61036;SDS011;57313;47.040;15.498;2022-08-19T01:13:48;12.68;;;2.80;;
61036;SDS011;57313;47.040;15.498;2022-08-19T01:16:19;7.63;;;2.60;;
61036;SDS011;57313;47.040;15.498;2022-08-19T01:18:49;14.38;;;3.25;;
61036;SDS011;57313;47.040;15.498;2022-08-19T01:21:18;9.70;;;2.60;;
61036;SDS011;57313;47.040;15.498;2022-08-19T01:23:53;18.58;;;3.97;;
61036;SDS011;57313;47.040;15.498;2022-08-19T01:26:22;11.32;;;2.90;;
61036;SDS011;57313;47.040;15.498;2022-08-19T01:28:53;12.25;;;2.88;;
61036;SDS011;57313;47.040;15.498;2022-08-19T01:31:27;17.03;;;3.40;;
61036;SDS011;57313;47.040;15.498;2022-08-19T01:33:58;12.73;;;3.47;;
61036;SDS011;57313;47.040;15.498;2022-08-19T01:36:27;12.70;;;3.95;;
61036;SDS011;57313;47.040;15.498;2022-08-19T01:38:59;14.73;;;3.83;;
61036;SDS011;57313;47.040;15.498;2022-08-19T01:41:28;14.02;;;4.43;;
61036;SDS011;57313;47.040;15.498;2022-08-19T01:43:56;14.25;;;4.30;;
61036;SDS011;57313;47.040;15.498;2022-08-19T01:46:43;14.68;;;3.90;;
61036;SDS011;57313;47.040;15.498;2022-08-19T01:49:12;14.55;;;4.03;;
61036;SDS011;57313;47.040;15.498;2022-08-19T01:51:40;13.10;;;3.42;;
61036;SDS011;57313;47.040;15.498;2022-08-19T01:54:11;11.02;;;3.67;;
61036;SDS011;57313;47.040;15.498;2022-08-19T01:56:52;11.75;;;2.90;;
61036;SDS011;57313;47.040;15.498;2022-08-19T01:59:27;11.90;;;2.95;;
61036;SDS011;57313;47.040;15.498;2022-08-19T02:01:56;13.32;;;3.40;;
61036;SDS011;57313;47.040;15.498;2022-08-19T02:04:24;12.20;;;3.00;;
61036;SDS011;57313;47.040;15.498;2022-08-19T02:06:51;12.13;;;3.30;;
61036;SDS011;57313;47.040;15.498;2022-08-19T02:09:21;12.27;;;2.95;;
61036;SDS011;57313;47.040;15.498;2022-08-19T02:11:48;9.73;;;3.10;;
61036;SDS011;57313;47.040;15.498;2022-08-19T02:14:15;14.05;;;3.08;;
61036;SDS011;57313;47.040;15.498;2022-08-19T02:16:43;14.75;;;3.50;;
61036;SDS011;57313;47.040;15.498;2022-08-19T02:19:10;14.02;;;3.58;;
61036;SDS011;57313;47.040;15.498;2022-08-19T02:21:38;13.23;;;3.20;;
61036;SDS011;57313;47.040;15.498;2022-08-19T02:24:05;14.05;;;3.78;;
61036;SDS011;57313;47.040;15.498;2022-08-19T02:26:35;13.07;;;3.40;;
61036;SDS011;57313;47.040;15.498;2022-08-19T02:29:02;17.05;;;3.25;;
61036;SDS011;57313;47.040;15.498;2022-08-19T02:31:30;10.77;;;3.00;;
61036;SDS011;57313;47.040;15.498;2022-08-19T02:33:57;14.35;;;3.70;;
61036;SDS011;57313;47.040;15.498;2022-08-19T02:36:25;11.27;;;3.40;;
61036;SDS011;57313;47.040;15.498;2022-08-19T02:38:53;17.75;;;3.70;;
61036;SDS011;57313;47.040;15.498;2022-08-19T02:41:22;10.75;;;3.22;;
61036;SDS011;57313;47.040;15.498;2022-08-19T02:43:54;15.10;;;4.28;;
61036;SDS011;57313;47.040;15.498;2022-08-19T02:46:41;14.38;;;3.58;;
61036;SDS011;57313;47.040;15.498;2022-08-19T02:49:08;12.48;;;3.55;;
61036;SDS011;57313;47.040;15.498;2022-08-19T02:51:37;17.17;;;4.72;;
61036;SDS011;57313;47.040;15.498;2022-08-19T02:54:09;11.63;;;3.33;;
61036;SDS011;57313;47.040;15.498;2022-08-19T02:56:38;12.43;;;3.67;;
61036;SDS011;57313;47.040;15.498;2022-08-19T02:59:08;10.10;;;3.95;;
61036;SDS011;57313;47.040;15.498;2022-08-19T03:01:37;12.88;;;3.67;;
61036;SDS011;57313;47.040;15.498;2022-08-19T03:04:08;9.15;;;3.42;;
61036;SDS011;57313;47.040;15.498;2022-08-19T03:06:37;14.10;;;3.92;;
61036;SDS011;57313;47.040;15.498;2022-08-19T03:09:06;11.40;;;3.17;;
61036;SDS011;57313;47.040;15.498;2022-08-19T03:11:33;13.40;;;3.75;;
61036;SDS011;57313;47.040;15.498;2022-08-19T03:14:03;12.73;;;3.85;;
61036;SDS011;57313;47.040;15.498;2022-08-19T03:16:39;15.30;;;3.78;;
61036;SDS011;57313;47.040;15.498;2022-08-19T03:19:08;12.75;;;4.38;;
61036;SDS011;57313;47.040;15.498;2022-08-19T03:21:35;12.52;;;3.60;;
61036;SDS011;57313;47.040;15.498;2022-08-19T03:24:04;13.82;;;4.10;;
61036;SDS011;57313;47.040;15.498;2022-08-19T03:26:37;15.60;;;3.97;;
61036;SDS011;57313;47.040;15.498;2022-08-19T03:29:06;12.98;;;3.10;;
61036;SDS011;57313;47.040;15.498;2022-08-19T03:31:38;17.75;;;4.38;;
61036;SDS011;57313;47.040;15.498;2022-08-19T03:34:17;13.93;;;3.50;;
61036;SDS011;57313;47.040;15.498;2022-08-19T03:36:47;11.07;;;2.92;;
61036;SDS011;57313;47.040;15.498;2022-08-19T03:39:14;16.98;;;3.88;;
61036;SDS011;57313;47.040;15.498;2022-08-19T03:41:44;13.05;;;3.72;;
61036;SDS011;57313;47.040;15.498;2022-08-19T03:44:14;13.23;;;3.88;;
61036;SDS011;57313;47.040;15.498;2022-08-19T03:46:48;15.68;;;3.22;;
61036;SDS011;57313;47.040;15.498;2022-08-19T03:49:18;20.13;;;3.58;;
61036;SDS011;57313;47.040;15.498;2022-08-19T03:51:46;17.67;;;3.55;;
61036;SDS011;57313;47.040;15.498;2022-08-19T03:54:15;13.32;;;3.75;;
61036;SDS011;57313;47.040;15.498;2022-08-19T03:56:45;14.23;;;3.75;;
61036;SDS011;57313;47.040;15.498;2022-08-19T03:59:15;18.45;;;4.35;;
61036;SDS011;57313;47.040;15.498;2022-08-19T04:01:44;13.00;;;3.53;;
61036;SDS011;57313;47.040;15.498;2022-08-19T04:04:13;15.13;;;3.55;;
61036;SDS011;57313;47.040;15.498;2022-08-19T04:06:41;15.32;;;4.00;;
61036;SDS011;57313;47.040;15.498;2022-08-19T04:09:12;14.65;;;3.65;;
61036;SDS011;57313;47.040;15.498;2022-08-19T04:11:41;13.43;;;3.42;;
61036;SDS011;57313;47.040;15.498;2022-08-19T04:14:11;12.27;;;4.38;;
61036;SDS011;57313;47.040;15.498;2022-08-19T04:16:41;17.13;;;4.18;;
61036;SDS011;57313;47.040;15.498;2022-08-19T04:19:10;14.10;;;5.18;;
61036;SDS011;57313;47.040;15.498;2022-08-19T04:21:42;14.18;;;3.80;;
61036;SDS011;57313;47.040;15.498;2022-08-19T04:24:11;16.00;;;4.10;;
61036;SDS011;57313;47.040;15.498;2022-08-19T04:26:40;15.50;;;3.67;;
61036;SDS011;57313;47.040;15.498;2022-08-19T04:29:08;16.45;;;4.10;;
61036;SDS011;57313;47.040;15.498;2022-08-19T04:31:38;11.45;;;3.20;;
61036;SDS011;57313;47.040;15.498;2022-08-19T04:34:08;12.90;;;3.97;;
61036;SDS011;57313;47.040;15.498;2022-08-19T04:36:39;11.88;;;3.58;;
61036;SDS011;57313;47.040;15.498;2022-08-19T04:39:09;12.18;;;3.92;;
61036;SDS011;57313;47.040;15.498;2022-08-19T04:41:39;16.92;;;3.85;;
61036;SDS011;57313;47.040;15.498;2022-08-19T04:44:06;14.20;;;4.35;;
61036;SDS011;57313;47.040;15.498;2022-08-19T04:46:34;12.68;;;3.97;;
61036;SDS011;57313;47.040;15.498;2022-08-19T04:49:06;12.88;;;4.25;;
61036;SDS011;57313;47.040;15.498;2022-08-19T04:51:41;17.35;;;4.28;;
61036;SDS011;57313;47.040;15.498;2022-08-19T04:54:10;15.13;;;3.67;;
61036;SDS011;57313;47.040;15.498;2022-08-19T04:56:38;13.13;;;3.97;;
61036;SDS011;57313;47.040;15.498;2022-08-19T04:59:06;12.38;;;3.92;;
61036;SDS011;57313;47.040;15.498;2022-08-19T05:01:34;14.30;;;4.13;;
61036;SDS011;57313;47.040;15.498;2022-08-19T05:04:02;12.95;;;3.63;;
61036;SDS011;57313;47.040;15.498;2022-08-19T05:06:31;11.85;;;4.13;;
61036;SDS011;57313;47.040;15.498;2022-08-19T05:09:02;14.35;;;3.50;;
61036;SDS011;57313;47.040;15.498;2022-08-19T05:11:32;16.70;;;4.13;;
61036;SDS011;57313;47.040;15.498;2022-08-19T05:14:01;15.32;;;4.60;;
61036;SDS011;57313;47.040;15.498;2022-08-19T05:16:29;14.25;;;4.07;;
61036;SDS011;57313;47.040;15.498;2022-08-19T05:18:56;13.23;;;4.22;;
61036;SDS011;57313;47.040;15.498;2022-08-19T05:21:24;16.13;;;4.80;;
61036;SDS011;57313;47.040;15.498;2022-08-19T05:23:52;16.13;;;5.93;;
61036;SDS011;57313;47.040;15.498;2022-08-19T05:26:21;14.43;;;4.40;;
61036;SDS011;57313;47.040;15.498;2022-08-19T05:28:49;12.13;;;3.33;;
61036;SDS011;57313;47.040;15.498;2022-08-19T05:31:20;10.10;;;3.50;;
61036;SDS011;57313;47.040;15.498;2022-08-19T05:33:48;14.13;;;3.50;;
61036;SDS011;57313;47.040;15.498;2022-08-19T05:36:16;15.55;;;4.53;;
61036;SDS011;57313;47.040;15.498;2022-08-19T05:38:43;11.00;;;3.22;;
61036;SDS011;57313;47.040;15.498;2022-08-19T05:41:10;15.02;;;4.10;;
61036;SDS011;57313;47.040;15.498;2022-08-19T05:43:42;13.35;;;3.70;;
61036;SDS011;57313;47.040;15.498;2022-08-19T05:46:13;12.02;;;3.35;;
61036;SDS011;57313;47.040;15.498;2022-08-19T05:48:53;15.55;;;3.53;;
61036;SDS011;57313;47.040;15.498;2022-08-19T05:51:21;12.80;;;3.83;;
61036;SDS011;57313;47.040;15.498;2022-08-19T05:53:54;11.30;;;3.78;;
61036;SDS011;57313;47.040;15.498;2022-08-19T05:56:21;11.73;;;3.42;;
61036;SDS011;57313;47.040;15.498;2022-08-19T05:58:50;13.10;;;4.05;;
61036;SDS011;57313;47.040;15.498;2022-08-19T06:01:17;14.52;;;4.07;;
61036;SDS011;57313;47.040;15.498;2022-08-19T06:03:47;12.13;;;3.40;;
61036;SDS011;57313;47.040;15.498;2022-08-19T06:06:15;15.23;;;4.18;;
61036;SDS011;57313;47.040;15.498;2022-08-19T06:08:42;19.42;;;4.13;;
61036;SDS011;57313;47.040;15.498;2022-08-19T06:11:14;12.05;;;4.10;;
61036;SDS011;57313;47.040;15.498;2022-08-19T06:13:44;16.80;;;3.83;;
61036;SDS011;57313;47.040;15.498;2022-08-19T06:16:14;12.63;;;3.90;;
61036;SDS011;57313;47.040;15.498;2022-08-19T06:18:42;15.85;;;3.85;;
61036;SDS011;57313;47.040;15.498;2022-08-19T06:21:09;15.80;;;4.45;;
61036;SDS011;57313;47.040;15.498;2022-08-19T06:23:37;15.77;;;3.97;;
61036;SDS011;57313;47.040;15.498;2022-08-19T06:26:07;13.98;;;4.10;;
61036;SDS011;57313;47.040;15.498;2022-08-19T06:28:38;20.02;;;4.43;;
61036;SDS011;57313;47.040;15.498;2022-08-19T06:31:06;12.90;;;3.97;;
61036;SDS011;57313;47.040;15.498;2022-08-19T06:33:36;16.25;;;4.40;;
61036;SDS011;57313;47.040;15.498;2022-08-19T06:36:05;17.55;;;3.95;;
61036;SDS011;57313;47.040;15.498;2022-08-19T06:38:33;13.77;;;4.20;;
61036;SDS011;57313;47.040;15.498;2022-08-19T06:41:02;10.65;;;3.85;;
61036;SDS011;57313;47.040;15.498;2022-08-19T06:43:33;12.45;;;3.85;;
61036;SDS011;57313;47.040;15.498;2022-08-19T06:46:04;12.73;;;4.70;;
61036;SDS011;57313;47.040;15.498;2022-08-19T06:48:42;19.60;;;4.22;;
61036;SDS011;57313;47.040;15.498;2022-08-19T06:51:11;15.20;;;3.80;;
61036;SDS011;57313;47.040;15.498;2022-08-19T06:53:40;13.63;;;4.28;;
61036;SDS011;57313;47.040;15.498;2022-08-19T06:56:08;12.90;;;4.30;;
61036;SDS011;57313;47.040;15.498;2022-08-19T06:58:35;15.98;;;4.10;;
61036;SDS011;57313;47.040;15.498;2022-08-19T07:01:03;16.58;;;4.05;;
61036;SDS011;57313;47.040;15.498;2022-08-19T07:03:35;15.35;;;4.28;;
61036;SDS011;57313;47.040;15.498;2022-08-19T07:06:07;30.13;;;4.35;;
61036;SDS011;57313;47.040;15.498;2022-08-19T07:08:58;17.02;;;4.40;;
61036;SDS011;57313;47.040;15.498;2022-08-19T07:11:26;13.85;;;4.00;;
61036;SDS011;57313;47.040;15.498;2022-08-19T07:13:55;11.48;;;3.63;;
61036;SDS011;57313;47.040;15.498;2022-08-19T07:16:23;11.20;;;3.50;;
61036;SDS011;57313;47.040;15.498;2022-08-19T07:18:55;12.55;;;4.05;;
61036;SDS011;57313;47.040;15.498;2022-08-19T07:21:26;19.63;;;4.03;;
61036;SDS011;57313;47.040;15.498;2022-08-19T07:23:55;15.52;;;4.22;;
61036;SDS011;57313;47.040;15.498;2022-08-19T07:26:24;15.68;;;3.88;;
61036;SDS011;57313;47.040;15.498;2022-08-19T07:28:54;17.65;;;4.10;;
61036;SDS011;57313;47.040;15.498;2022-08-19T07:31:22;12.40;;;3.90;;
61036;SDS011;57313;47.040;15.498;2022-08-19T07:33:52;14.65;;;3.90;;
61036;SDS011;57313;47.040;15.498;2022-08-19T07:36:22;14.95;;;4.20;;
61036;SDS011;57313;47.040;15.498;2022-08-19T07:38:54;16.20;;;3.55;;
61036;SDS011;57313;47.040;15.498;2022-08-19T07:41:22;11.80;;;3.90;;
61036;SDS011;57313;47.040;15.498;2022-08-19T07:43:51;18.00;;;4.65;;
61036;SDS011;57313;47.040;15.498;2022-08-19T07:46:19;14.15;;;4.28;;
61036;SDS011;57313;47.040;15.498;2022-08-19T07:48:47;14.68;;;5.00;;
61036;SDS011;57313;47.040;15.498;2022-08-19T07:51:17;16.38;;;4.20;;
61036;SDS011;57313;47.040;15.498;2022-08-19T07:54:04;17.52;;;4.00;;
61036;SDS011;57313;47.040;15.498;2022-08-19T07:56:31;13.55;;;4.53;;
61036;SDS011;57313;47.040;15.498;2022-08-19T07:58:59;15.63;;;4.50;;
61036;SDS011;57313;47.040;15.498;2022-08-19T08:01:26;16.50;;;4.70;;
61036;SDS011;57313;47.040;15.498;2022-08-19T08:03:56;16.58;;;4.68;;
61036;SDS011;57313;47.040;15.498;2022-08-19T08:06:24;12.73;;;4.47;;
61036;SDS011;57313;47.040;15.498;2022-08-19T08:08:54;18.50;;;4.57;;
61036;SDS011;57313;47.040;15.498;2022-08-19T08:11:25;20.45;;;4.88;;
61036;SDS011;57313;47.040;15.498;2022-08-19T08:13:55;12.95;;;4.47;;
61036;SDS011;57313;47.040;15.498;2022-08-19T08:16:27;14.57;;;4.30;;
61036;SDS011;57313;47.040;15.498;2022-08-19T08:18:55;11.05;;;3.65;;
61036;SDS011;57313;47.040;15.498;2022-08-19T08:21:23;11.70;;;3.00;;
61036;SDS011;57313;47.040;15.498;2022-08-19T08:23:50;11.65;;;2.85;;
61036;SDS011;57313;47.040;15.498;2022-08-19T08:26:21;11.90;;;2.80;;
61036;SDS011;57313;47.040;15.498;2022-08-19T08:28:51;17.90;;;3.55;;
61036;SDS011;57313;47.040;15.498;2022-08-19T08:31:18;15.88;;;3.88;;
61036;SDS011;57313;47.040;15.498;2022-08-19T08:33:46;20.67;;;4.82;;
61036;SDS011;57313;47.040;15.498;2022-08-19T08:36:14;16.55;;;4.82;;
61036;SDS011;57313;47.040;15.498;2022-08-19T08:38:42;13.85;;;4.78;;
61036;SDS011;57313;47.040;15.498;2022-08-19T08:41:13;14.35;;;4.43;;
61036;SDS011;57313;47.040;15.498;2022-08-19T08:43:48;17.73;;;4.53;;
61036;SDS011;57313;47.040;15.498;2022-08-19T08:46:21;14.77;;;4.35;;
61036;SDS011;57313;47.040;15.498;2022-08-19T08:48:58;22.38;;;5.00;;
61036;SDS011;57313;47.040;15.498;2022-08-19T08:51:32;12.95;;;4.10;;
61036;SDS011;57313;47.040;15.498;2022-08-19T08:54:02;14.57;;;4.97;;
61036;SDS011;57313;47.040;15.498;2022-08-19T08:56:36;15.77;;;4.57;;
61036;SDS011;57313;47.040;15.498;2022-08-19T08:59:07;18.10;;;4.93;;
61036;SDS011;57313;47.040;15.498;2022-08-19T09:01:39;12.67;;;5.13;;
61036;SDS011;57313;47.040;15.498;2022-08-19T09:04:07;16.60;;;5.43;;
61036;SDS011;57313;47.040;15.498;2022-08-19T09:06:40;23.65;;;6.30;;
61036;SDS011;57313;47.040;15.498;2022-08-19T09:09:17;16.05;;;5.28;;
61036;SDS011;57313;47.040;15.498;2022-08-19T09:11:55;15.63;;;4.80;;
61036;SDS011;57313;47.040;15.498;2022-08-19T09:14:34;14.75;;;5.28;;
61036;SDS011;57313;47.040;15.498;2022-08-19T09:17:16;18.08;;;4.70;;
61036;SDS011;57313;47.040;15.498;2022-08-19T09:19:52;20.50;;;5.25;;
61036;SDS011;57313;47.040;15.498;2022-08-19T09:24:53;16.88;;;4.93;;
61036;SDS011;57313;47.040;15.498;2022-08-19T09:27:22;15.45;;;5.32;;
61036;SDS011;57313;47.040;15.498;2022-08-19T09:30:14;16.90;;;5.75;;
61036;SDS011;57313;47.040;15.498;2022-08-19T09:32:43;16.00;;;5.57;;
61036;SDS011;57313;47.040;15.498;2022-08-19T09:35:12;20.83;;;5.43;;
61036;SDS011;57313;47.040;15.498;2022-08-19T09:37:41;15.30;;;5.35;;
61036;SDS011;57313;47.040;15.498;2022-08-19T09:40:09;16.40;;;4.70;;
61036;SDS011;57313;47.040;15.498;2022-08-19T09:42:38;16.02;;;4.90;;
61036;SDS011;57313;47.040;15.498;2022-08-19T09:45:19;17.40;;;4.93;;
61036;SDS011;57313;47.040;15.498;2022-08-19T09:47:49;13.93;;;4.05;;
61036;SDS011;57313;47.040;15.498;2022-08-19T09:50:19;14.35;;;3.90;;
61036;SDS011;57313;47.040;15.498;2022-08-19T09:52:48;13.07;;;3.63;;
61036;SDS011;57313;47.040;15.498;2022-08-19T09:57:59;15.98;;;4.10;;
61036;SDS011;57313;47.040;15.498;2022-08-19T10:00:29;13.05;;;3.70;;
61036;SDS011;57313;47.040;15.498;2022-08-19T10:02:56;15.20;;;3.58;;
61036;SDS011;57313;47.040;15.498;2022-08-19T10:05:26;11.35;;;3.60;;
61036;SDS011;57313;47.040;15.498;2022-08-19T10:07:56;13.85;;;3.58;;
61036;SDS011;57313;47.040;15.498;2022-08-19T10:10:24;16.88;;;3.63;;
61036;SDS011;57313;47.040;15.498;2022-08-19T10:12:52;17.95;;;3.97;;
61036;SDS011;57313;47.040;15.498;2022-08-19T10:15:19;14.45;;;3.97;;
61036;SDS011;57313;47.040;15.498;2022-08-19T10:20:24;10.65;;;3.33;;
61036;SDS011;57313;47.040;15.498;2022-08-19T10:22:51;16.90;;;5.00;;
61036;SDS011;57313;47.040;15.498;2022-08-19T10:25:19;13.13;;;3.95;;
61036;SDS011;57313;47.040;15.498;2022-08-19T10:27:46;11.85;;;3.88;;
61036;SDS011;57313;47.040;15.498;2022-08-19T10:30:17;15.40;;;4.28;;
61036;SDS011;57313;47.040;15.498;2022-08-19T10:32:46;15.15;;;4.43;;
61036;SDS011;57313;47.040;15.498;2022-08-19T10:35:15;13.18;;;4.20;;
61036;SDS011;57313;47.040;15.498;2022-08-19T10:37:48;11.63;;;3.95;;
61036;SDS011;57313;47.040;15.498;2022-08-19T10:40:27;11.73;;;4.03;;
61036;SDS011;57313;47.040;15.498;2022-08-19T10:42:55;13.10;;;3.95;;
61036;SDS011;57313;47.040;15.498;2022-08-19T10:45:22;17.52;;;4.55;;
61036;SDS011;57313;47.040;15.498;2022-08-19T10:47:50;12.13;;;4.15;;
61036;SDS011;57313;47.040;15.498;2022-08-19T10:50:21;12.27;;;3.70;;
61036;SDS011;57313;47.040;15.498;2022-08-19T10:52:55;15.27;;;3.83;;
61036;SDS011;57313;47.040;15.498;2022-08-19T10:55:23;10.35;;;3.20;;
61036;SDS011;57313;47.040;15.498;2022-08-19T10:57:55;12.77;;;3.35;;
61036;SDS011;57313;47.040;15.498;2022-08-19T11:00:28;12.02;;;3.55;;
61036;SDS011;57313;47.040;15.498;2022-08-19T11:02:59;11.80;;;3.55;;
61036;SDS011;57313;47.040;15.498;2022-08-19T11:05:28;14.50;;;3.72;;
61036;SDS011;57313;47.040;15.498;2022-08-19T11:08:05;13.43;;;2.90;;
61036;SDS011;57313;47.040;15.498;2022-08-19T11:10:49;9.50;;;3.63;;
61036;SDS011;57313;47.040;15.498;2022-08-19T11:13:17;15.07;;;3.97;;
61036;SDS011;57313;47.040;15.498;2022-08-19T11:15:45;10.43;;;3.42;;
61036;SDS011;57313;47.040;15.498;2022-08-19T11:18:12;11.13;;;3.30;;
61036;SDS011;57313;47.040;15.498;2022-08-19T11:20:43;13.25;;;3.05;;
61036;SDS011;57313;47.040;15.498;2022-08-19T11:23:10;10.68;;;2.95;;
61036;SDS011;57313;47.040;15.498;2022-08-19T11:25:38;10.48;;;3.00;;
61036;SDS011;57313;47.040;15.498;2022-08-19T11:28:05;12.07;;;2.60;;
61036;SDS011;57313;47.040;15.498;2022-08-19T11:30:33;12.65;;;2.63;;
61036;SDS011;57313;47.040;15.498;2022-08-19T11:33:01;8.15;;;2.30;;
61036;SDS011;57313;47.040;15.498;2022-08-19T11:35:29;9.55;;;2.88;;
61036;SDS011;57313;47.040;15.498;2022-08-19T11:37:58;14.23;;;2.67;;
61036;SDS011;57313;47.040;15.498;2022-08-19T11:40:26;13.32;;;3.20;;
61036;SDS011;57313;47.040;15.498;2022-08-19T11:42:54;9.02;;;2.38;;
61036;SDS011;57313;47.040;15.498;2022-08-19T11:45:22;10.43;;;2.60;;
61036;SDS011;57313;47.040;15.498;2022-08-19T11:47:50;10.82;;;2.85;;
61036;SDS011;57313;47.040;15.498;2022-08-19T11:50:18;11.10;;;2.92;;
61036;SDS011;57313;47.040;15.498;2022-08-19T11:52:46;10.73;;;2.38;;
61036;SDS011;57313;47.040;15.498;2022-08-19T11:55:16;10.05;;;2.75;;
61036;SDS011;57313;47.040;15.498;2022-08-19T11:57:44;11.68;;;2.70;;
61036;SDS011;57313;47.040;15.498;2022-08-19T12:00:13;13.95;;;3.10;;
61036;SDS011;57313;47.040;15.498;2022-08-19T12:02:41;10.55;;;2.85;;
61036;SDS011;57313;47.040;15.498;2022-08-19T12:05:09;12.23;;;3.03;;
61036;SDS011;57313;47.040;15.498;2022-08-19T12:07:38;7.45;;;2.60;;
61036;SDS011;57313;47.040;15.498;2022-08-19T12:10:06;16.52;;;2.60;;
61036;SDS011;57313;47.040;15.498;2022-08-19T12:12:39;9.85;;;2.78;;
61036;SDS011;57313;47.040;15.498;2022-08-19T12:15:07;10.40;;;2.50;;
61036;SDS011;57313;47.040;15.498;2022-08-19T12:17:36;13.98;;;3.20;;
61036;SDS011;57313;47.040;15.498;2022-08-19T12:20:04;16.30;;;2.50;;
61036;SDS011;57313;47.040;15.498;2022-08-19T12:22:33;10.15;;;2.88;;
61036;SDS011;57313;47.040;15.498;2022-08-19T12:25:00;15.30;;;2.88;;
61036;SDS011;57313;47.040;15.498;2022-08-19T12:27:28;11.32;;;2.85;;
61036;SDS011;57313;47.040;15.498;2022-08-19T12:30:09;13.15;;;2.72;;
61036;SDS011;57313;47.040;15.498;2022-08-19T12:32:38;16.92;;;2.70;;
61036;SDS011;57313;47.040;15.498;2022-08-19T12:35:07;19.83;;;3.05;;
61036;SDS011;57313;47.040;15.498;2022-08-19T12:37:36;14.25;;;3.03;;
61036;SDS011;57313;47.040;15.498;2022-08-19T12:40:04;13.70;;;2.53;;
61036;SDS011;57313;47.040;15.498;2022-08-19T12:42:33;13.52;;;3.08;;
61036;SDS011;57313;47.040;15.498;2022-08-19T12:45:00;12.40;;;2.60;;
61036;SDS011;57313;47.040;15.498;2022-08-19T12:47:32;12.68;;;2.22;;
61036;SDS011;57313;47.040;15.498;2022-08-19T12:50:03;15.07;;;2.53;;
61036;SDS011;57313;47.040;15.498;2022-08-19T12:52:32;12.40;;;2.38;;
61036;SDS011;57313;47.040;15.498;2022-08-19T12:55:00;10.80;;;2.67;;
61036;SDS011;57313;47.040;15.498;2022-08-19T12:57:28;15.55;;;2.97;;
61036;SDS011;57313;47.040;15.498;2022-08-19T12:59:58;12.13;;;2.47;;
61036;SDS011;57313;47.040;15.498;2022-08-19T13:02:26;10.27;;;2.45;;
61036;SDS011;57313;47.040;15.498;2022-08-19T13:04:56;9.43;;;2.40;;
61036;SDS011;57313;47.040;15.498;2022-08-19T13:07:24;14.27;;;2.67;;
61036;SDS011;57313;47.040;15.498;2022-08-19T13:09:51;11.27;;;2.83;;
61036;SDS011;57313;47.040;15.498;2022-08-19T13:12:19;14.13;;;3.05;;
61036;SDS011;57313;47.040;15.498;2022-08-19T13:14:50;9.27;;;2.55;;
61036;SDS011;57313;47.040;15.498;2022-08-19T13:17:18;14.68;;;2.58;;
61036;SDS011;57313;47.040;15.498;2022-08-19T13:19:46;19.08;;;2.63;;
61036;SDS011;57313;47.040;15.498;2022-08-19T13:22:16;35.08;;;3.40;;
61036;SDS011;57313;47.040;15.498;2022-08-19T13:24:44;12.80;;;2.42;;
61036;SDS011;57313;47.040;15.498;2022-08-19T13:27:13;12.07;;;2.65;;
61036;SDS011;57313;47.040;15.498;2022-08-19T13:29:41;10.60;;;2.60;;
61036;SDS011;57313;47.040;15.498;2022-08-19T13:32:10;12.13;;;2.50;;
61036;SDS011;57313;47.040;15.498;2022-08-19T13:34:44;15.48;;;2.85;;
61036;SDS011;57313;47.040;15.498;2022-08-19T13:37:11;13.88;;;2.42;;
61036;SDS011;57313;47.040;15.498;2022-08-19T13:39:40;9.48;;;2.72;;
61036;SDS011;57313;47.040;15.498;2022-08-19T13:42:08;15.27;;;2.92;;
61036;SDS011;57313;47.040;15.498;2022-08-19T13:44:35;12.10;;;2.88;;
61036;SDS011;57313;47.040;15.498;2022-08-19T13:47:03;20.00;;;4.82;;
61036;SDS011;57313;47.040;15.498;2022-08-19T13:49:33;9.85;;;2.70;;
61036;SDS011;57313;47.040;15.498;2022-08-19T13:52:02;15.48;;;2.72;;
61036;SDS011;57313;47.040;15.498;2022-08-19T13:54:32;10.82;;;2.85;;
61036;SDS011;57313;47.040;15.498;2022-08-19T13:57:02;14.93;;;3.55;;
61036;SDS011;57313;47.040;15.498;2022-08-19T13:59:29;14.32;;;2.95;;
61036;SDS011;57313;47.040;15.498;2022-08-19T14:01:57;13.60;;;2.75;;
61036;SDS011;57313;47.040;15.498;2022-08-19T14:04:26;8.82;;;2.25;;
61036;SDS011;57313;47.040;15.498;2022-08-19T14:06:54;9.05;;;2.30;;
61036;SDS011;57313;47.040;15.498;2022-08-19T14:09:21;12.27;;;2.35;;
61036;SDS011;57313;47.040;15.498;2022-08-19T14:11:49;11.27;;;2.53;;
61036;SDS011;57313;47.040;15.498;2022-08-19T14:14:18;10.70;;;2.50;;
61036;SDS011;57313;47.040;15.498;2022-08-19T14:16:45;11.93;;;2.85;;
61036;SDS011;57313;47.040;15.498;2022-08-19T14:19:13;9.88;;;2.10;;
61036;SDS011;57313;47.040;15.498;2022-08-19T14:21:40;14.23;;;2.58;;
61036;SDS011;57313;47.040;15.498;2022-08-19T14:24:08;11.13;;;2.15;;
61036;SDS011;57313;47.040;15.498;2022-08-19T14:26:36;18.70;;;3.15;;
61036;SDS011;57313;47.040;15.498;2022-08-19T14:29:03;14.73;;;2.72;;
61036;SDS011;57313;47.040;15.498;2022-08-19T14:31:32;12.85;;;2.47;;
61036;SDS011;57313;47.040;15.498;2022-08-19T14:34:00;17.75;;;3.38;;
61036;SDS011;57313;47.040;15.498;2022-08-19T14:36:27;13.13;;;3.35;;
61036;SDS011;57313;47.040;15.498;2022-08-19T14:38:55;16.42;;;2.55;;
61036;SDS011;57313;47.040;15.498;2022-08-19T14:41:23;13.98;;;2.42;;
61036;SDS011;57313;47.040;15.498;2022-08-19T14:43:51;12.30;;;2.50;;
61036;SDS011;57313;47.040;15.498;2022-08-19T14:46:20;13.85;;;3.15;;